createdAt,value
2022-10-05T00:04:58.882Z,2.60
2022-10-05T00:09:59.736Z,3.17
2022-10-05T00:15:01.972Z,3.35
2022-10-05T00:20:02.627Z,3.10
2022-10-05T00:25:03.138Z,3.50
2022-10-05T00:30:11.555Z,2.80
2022-10-05T00:35:13.071Z,3.17
2022-10-05T00:40:24.141Z,2.75
2022-10-05T00:45:28.406Z,3.15
2022-10-05T00:50:55.716Z,2.88
2022-10-05T00:56:02.607Z,2.97
2022-10-05T01:01:10.780Z,3.03
2022-10-05T01:06:22.693Z,2.85
2022-10-05T01:11:29.137Z,3.30
2022-10-05T01:16:37.217Z,2.90
2022-10-05T01:21:43.850Z,3.22
2022-10-05T01:27:20.536Z,3.10
2022-10-05T01:32:27.162Z,3.03
2022-10-05T01:37:31.422Z,3.03
2022-10-05T01:42:45.464Z,3.08
2022-10-05T01:47:49.279Z,2.67
2022-10-05T01:52:57.690Z,2.75
2022-10-05T01:58:08.842Z,2.70
2022-10-05T02:03:14.841Z,3.03
2022-10-05T02:08:17.896Z,2.70
2022-10-05T02:13:24.034Z,2.83
2022-10-05T02:18:28.984Z,3.42
2022-10-05T02:23:33.967Z,3.00
2022-10-05T02:28:38.155Z,3.67
2022-10-05T02:33:38.751Z,2.65
2022-10-05T02:39:01.799Z,2.85
2022-10-05T02:44:12.194Z,2.78
2022-10-05T02:49:20.849Z,2.50
2022-10-05T02:54:33.723Z,2.53
2022-10-05T02:59:47.925Z,3.42
2022-10-05T03:05:09.438Z,2.80
2022-10-05T03:10:28.766Z,2.72
2022-10-05T03:15:43.990Z,2.65
2022-10-05T03:20:50.247Z,3.28
2022-10-05T03:26:10.232Z,3.00
2022-10-05T03:31:22.888Z,3.20
2022-10-05T03:36:34.051Z,3.37
2022-10-05T03:41:39.128Z,3.53
2022-10-05T03:46:50.732Z,3.50
2022-10-05T03:51:56.985Z,3.95
2022-10-05T03:56:58.671Z,4.50
2022-10-05T04:02:01.539Z,4.80
2022-10-05T04:07:07.489Z,5.45
2022-10-05T04:12:17.549Z,6.13
2022-10-05T04:17:23.183Z,4.95
2022-10-05T04:22:29.373Z,5.38
2022-10-05T04:27:34.646Z,5.72
2022-10-05T04:32:38.941Z,4.55
2022-10-05T04:37:51.894Z,4.55
2022-10-05T04:43:00.948Z,4.80
2022-10-05T04:48:20.454Z,4.75
2022-10-05T04:53:30.881Z,4.22
2022-10-05T04:58:45.966Z,5.03
2022-10-05T05:04:08.512Z,6.70
2022-10-05T05:09:43.847Z,4.25
2022-10-05T05:15:04.464Z,4.13
2022-10-05T05:20:18.426Z,4.35
2022-10-05T05:25:31.343Z,4.07
2022-10-05T05:30:38.769Z,4.20
2022-10-05T05:36:04.550Z,4.75
2022-10-05T05:41:10.929Z,5.10
2022-10-05T05:46:18.027Z,4.57
2022-10-05T05:51:22.230Z,4.05
2022-10-05T05:56:32.226Z,6.13
2022-10-05T06:01:35.032Z,5.45
2022-10-05T06:06:44.057Z,4.65
2022-10-05T06:11:50.147Z,5.57
2022-10-05T06:16:54.958Z,4.63
2022-10-05T06:22:01.198Z,6.63
2022-10-05T06:27:25.841Z,4.90
2022-10-05T06:32:31.336Z,4.90
2022-10-05T06:37:49.711Z,4.63
2022-10-05T06:43:09.724Z,5.45
2022-10-05T06:48:17.584Z,7.07
2022-10-05T06:53:52.989Z,4.18
2022-10-05T06:59:01.151Z,7.47
2022-10-05T07:04:21.367Z,6.82
2022-10-05T07:09:32.944Z,3.88
2022-10-05T07:14:50.513Z,3.65
2022-10-05T07:19:59.547Z,3.72
2022-10-05T07:25:03.960Z,2.85
2022-10-05T07:30:07.720Z,2.70
2022-10-05T07:35:29.496Z,2.90
2022-10-05T07:40:34.537Z,2.53
2022-10-05T07:45:46.357Z,2.88
2022-10-05T07:51:00.086Z,3.50
2022-10-05T07:56:04.849Z,2.90
2022-10-05T08:01:17.067Z,3.10
2022-10-05T08:11:25.854Z,3.28
2022-10-05T08:16:32.265Z,3.25
2022-10-05T08:21:37.439Z,3.05
2022-10-05T08:26:43.399Z,2.85
2022-10-05T08:31:48.997Z,3.42
2022-10-05T08:36:56.415Z,2.95
2022-10-05T08:42:18.803Z,2.90
2022-10-05T08:47:29.055Z,3.78
2022-10-05T08:52:30.413Z,2.67
2022-10-05T08:58:04.870Z,2.47
2022-10-05T09:03:22.949Z,2.72
2022-10-05T09:08:45.485Z,2.70
2022-10-05T09:19:27.800Z,2.28
2022-10-05T09:24:29.736Z,2.00
2022-10-05T09:35:07.326Z,2.08
2022-10-05T09:40:51.105Z,1.58
2022-10-05T09:46:17.370Z,2.00
2022-10-05T09:51:40.391Z,2.42
2022-10-05T09:57:05.587Z,2.30
2022-10-05T10:02:30.755Z,1.85
2022-10-05T10:07:54.043Z,2.42
2022-10-05T10:13:05.860Z,1.75
2022-10-05T10:18:40.544Z,3.20
2022-10-05T10:24:06.894Z,2.13
2022-10-05T10:29:32.513Z,1.80
2022-10-05T10:35:04.160Z,2.10
2022-10-05T10:40:23.435Z,2.22
2022-10-05T10:45:45.544Z,2.47
2022-10-05T10:51:19.342Z,2.40
2022-10-05T10:56:32.709Z,2.25
2022-10-05T11:01:36.476Z,1.70
2022-10-05T11:07:13.951Z,1.75
2022-10-05T11:12:49.083Z,1.70
2022-10-05T11:18:07.954Z,2.15
2022-10-05T11:23:34.167Z,1.50
2022-10-05T11:28:54.274Z,1.42
2022-10-05T11:34:39.766Z,1.48
2022-10-05T11:39:44.726Z,1.55
2022-10-05T11:45:25.112Z,1.52
2022-10-05T11:50:34.081Z,2.47
2022-10-05T11:55:38.699Z,2.58
2022-10-05T12:00:43.897Z,1.10
2022-10-05T12:05:59.906Z,2.25
2022-10-05T12:11:09.357Z,1.60
2022-10-05T12:16:16.843Z,1.50
2022-10-05T12:21:27.786Z,1.20
2022-10-05T12:26:31.218Z,1.52
2022-10-05T12:31:41.751Z,1.45
2022-10-05T12:37:04.976Z,1.77
2022-10-05T12:42:17.413Z,1.35
2022-10-05T12:47:27.409Z,1.63
2022-10-05T12:52:44.001Z,1.98
2022-10-05T12:57:51.033Z,1.70
2022-10-05T13:02:52.131Z,1.67
2022-10-05T13:08:12.922Z,1.30
2022-10-05T13:13:34.322Z,1.45
2022-10-05T13:18:43.055Z,1.50
2022-10-05T13:23:57.653Z,1.10
2022-10-05T13:29:01.416Z,1.55
2022-10-05T13:34:12.820Z,0.98
2022-10-05T13:39:25.046Z,1.10
2022-10-05T13:44:32.481Z,1.33
2022-10-05T13:49:40.239Z,1.05
2022-10-05T13:54:46.279Z,2.42
2022-10-05T13:59:54.549Z,1.00
2022-10-05T14:05:01.633Z,1.30
2022-10-05T14:10:04.710Z,0.73
2022-10-05T14:15:21.356Z,0.80
2022-10-05T14:20:25.151Z,1.05
2022-10-05T14:25:25.494Z,0.60
2022-10-05T14:30:25.894Z,0.90
2022-10-05T14:35:30.069Z,1.10
2022-10-05T14:40:33.231Z,1.80
2022-10-05T14:45:33.496Z,1.30
2022-10-05T14:50:33.044Z,1.50
2022-10-05T14:56:01.289Z,1.85
2022-10-05T15:01:11.299Z,1.63
2022-10-05T15:11:21.776Z,1.40
2022-10-05T15:16:25.804Z,1.65
2022-10-05T15:21:50.314Z,1.70
2022-10-05T15:26:52.706Z,2.92
2022-10-05T15:31:59.535Z,2.30
2022-10-05T15:37:03.370Z,1.63
2022-10-05T15:42:11.708Z,2.13
2022-10-05T15:47:20.287Z,2.92
2022-10-05T15:52:28.300Z,8.35
2022-10-05T15:57:42.173Z,5.38
2022-10-05T16:02:47.448Z,3.53
2022-10-05T16:08:10.710Z,3.15
2022-10-05T16:13:21.262Z,4.78
2022-10-05T16:18:43.192Z,5.40
2022-10-05T16:23:58.874Z,5.50
2022-10-05T16:29:06.538Z,6.20
2022-10-05T16:34:19.174Z,9.80
2022-10-05T16:39:27.035Z,6.05
2022-10-05T16:44:38.667Z,5.78
2022-10-05T16:49:45.703Z,6.72
2022-10-05T16:54:49.001Z,7.90
2022-10-05T17:00:13.469Z,6.55
2022-10-05T17:05:30.917Z,6.13
2022-10-05T17:10:47.468Z,8.82
2022-10-05T17:16:03.563Z,7.63
2022-10-05T17:21:11.070Z,5.45
2022-10-05T17:26:34.858Z,5.22
2022-10-05T17:32:01.868Z,5.40
2022-10-05T17:37:17.495Z,6.13
2022-10-05T17:42:48.614Z,7.28
2022-10-05T17:47:57.822Z,8.93
2022-10-05T17:53:38.762Z,9.82
2022-10-05T17:59:02.772Z,7.65
2022-10-05T18:04:38.984Z,8.38
2022-10-05T18:09:56.183Z,13.65
2022-10-05T18:15:02.122Z,12.65
2022-10-05T18:20:35.369Z,8.15
2022-10-05T18:25:45.231Z,7.88
2022-10-05T18:31:01.997Z,9.40
2022-10-05T18:36:13.265Z,10.20
2022-10-05T18:41:22.713Z,10.10
2022-10-05T18:46:31.786Z,11.68
2022-10-05T18:51:41.516Z,11.73
2022-10-05T18:56:46.263Z,12.30
2022-10-05T19:02:14.089Z,10.23
2022-10-05T19:07:27.721Z,8.18
2022-10-05T19:12:40.625Z,8.80
2022-10-05T19:18:13.455Z,8.40
2022-10-05T19:23:33.613Z,8.05
2022-10-05T19:28:38.432Z,9.10
2022-10-05T19:33:57.187Z,8.43
2022-10-05T19:39:08.148Z,5.78
2022-10-05T19:44:20.023Z,5.00
2022-10-05T19:49:37.511Z,5.03
2022-10-05T19:54:37.736Z,4.68
2022-10-05T19:59:40.582Z,5.78
2022-10-05T20:04:44.760Z,6.38
2022-10-05T20:09:53.624Z,3.97
2022-10-05T20:15:27.543Z,3.60
2022-10-05T20:20:36.633Z,4.05
2022-10-05T20:25:40.336Z,3.38
2022-10-05T20:30:39.110Z,3.80
2022-10-05T20:35:37.808Z,3.10
2022-10-05T20:40:39.096Z,3.55
2022-10-05T20:45:43.845Z,3.05
2022-10-05T20:50:42.601Z,6.85
2022-10-05T20:55:43.177Z,4.18
2022-10-05T21:00:59.487Z,3.10
2022-10-05T21:05:59.346Z,3.03
2022-10-05T21:10:59.836Z,4.03
2022-10-05T21:15:58.625Z,3.40
2022-10-05T21:21:01.397Z,3.00
2022-10-05T21:26:02.711Z,3.28
2022-10-05T21:31:01.526Z,3.85
2022-10-05T21:36:00.408Z,3.22
2022-10-05T21:40:59.565Z,2.83
2022-10-05T21:46:01.116Z,2.95
2022-10-05T21:51:00.931Z,2.63
2022-10-05T21:56:02.888Z,2.35
2022-10-05T22:01:03.410Z,2.83
2022-10-05T22:06:03.774Z,2.17
2022-10-05T22:11:10.234Z,2.15
2022-10-05T22:16:10.894Z,2.45
2022-10-05T22:21:12.437Z,2.13
2022-10-05T22:26:13.717Z,1.73
2022-10-05T22:31:14.975Z,1.73
2022-10-05T22:36:13.803Z,1.58
2022-10-05T22:41:13.291Z,1.63
2022-10-05T22:46:14.623Z,2.03
2022-10-05T22:51:13.894Z,2.05
2022-10-05T22:56:14.262Z,2.05
2022-10-05T23:01:16.840Z,2.25
2022-10-05T23:06:18.349Z,2.28
2022-10-05T23:11:19.263Z,2.55
2022-10-05T23:16:21.186Z,2.50
2022-10-05T23:21:20.847Z,2.33
2022-10-05T23:26:22.996Z,1.92
2022-10-05T23:31:25.581Z,2.00
2022-10-05T23:36:25.873Z,2.85
2022-10-05T23:41:25.071Z,3.22
2022-10-05T23:46:25.788Z,2.40
2022-10-05T23:51:24.541Z,2.63
2022-10-05T23:56:23.382Z,2.55
